Time;durP1;ratioP1;P1;durP2;ratioP2;P2;SDS_P1;SDS_P2;PMS_P1;PMS_P2;Temp;Humidity;BMP_temperature;BMP_pressure;BME280_temperature;BME280_humidity;BME280_pressure;Samples;Min_cycle;Max_cycle;Signal;HPM_P1;HPM_P2
2023/10/05 00:04:41;;;;;;;2.15;0.45;;;13.30;99.90;;;;;;4950279;28;20039;-60
2023/10/05 00:07:18;;;;;;;1.67;0.50;;;13.40;99.90;;;;;;4948576;29;20055;-60
2023/10/05 00:09:44;;;;;;;1.17;0.50;;;13.40;99.90;;;;;;4948988;29;20051;-60
2023/10/05 00:12:19;;;;;;;5.57;0.68;;;13.40;99.90;;;;;;4948208;29;20031;-60
2023/10/05 00:15:13;;;;;;;1.02;0.60;;;13.40;99.90;;;;;;4929531;29;20105;-60
2023/10/05 00:17:38;;;;;;;0.73;0.45;;;13.50;99.90;;;;;;4929616;28;20040;-60
2023/10/05 00:20:14;;;;;;;1.20;0.40;;;13.50;99.90;;;;;;4929412;29;20518;-60
2023/10/05 00:22:40;;;;;;;2.13;0.82;;;13.50;99.90;;;;;;4916162;29;20051;-60
2023/10/05 00:25:17;;;;;;;1.60;0.82;;;13.50;99.90;;;;;;4938180;29;20659;-60
2023/10/05 00:27:48;;;;;;;4.07;0.45;;;13.50;99.90;;;;;;4929202;29;20039;-60
2023/10/05 00:30:16;;;;;;;2.88;0.57;;;13.50;99.90;;;;;;4928042;29;20126;-60
2023/10/05 00:32:52;;;;;;;1.83;0.63;;;13.50;99.90;;;;;;4929099;29;20044;-60
2023/10/05 00:35:24;;;;;;;2.63;0.70;;;13.50;99.90;;;;;;4930237;29;20181;-60
2023/10/05 00:37:51;;;;;;;1.27;0.40;;;13.50;99.90;;;;;;4929648;29;20035;-60
2023/10/05 00:40:36;;;;;;;2.50;0.85;;;13.50;99.90;;;;;;4913603;29;20075;-60
2023/10/05 00:43:12;;;;;;;5.20;1.25;;;13.50;99.90;;;;;;4923123;29;20062;-60
2023/10/05 00:45:39;;;;;;;2.35;0.70;;;13.50;99.90;;;;;;4948875;29;20537;-60
2023/10/05 00:48:27;;;;;;;7.05;0.93;;;13.50;99.90;;;;;;4947846;29;20051;-60
2023/10/05 00:51:23;;;;;;;1.90;0.73;;;13.50;99.90;;;;;;4948709;29;20120;-60
2023/10/05 00:53:53;;;;;;;4.13;0.80;;;13.50;99.90;;;;;;4949385;28;20069;-60
2023/10/05 00:56:24;;;;;;;2.17;0.57;;;13.50;99.90;;;;;;4947854;29;20039;-60
2023/10/05 00:59:04;;;;;;;1.33;0.30;;;13.40;99.90;;;;;;4948452;29;20454;-60
2023/10/05 01:01:58;;;;;;;2.38;0.50;;;13.40;99.90;;;;;;4949459;28;20058;-60
2023/10/05 01:04:26;;;;;;;0.90;0.50;;;13.40;99.90;;;;;;4948228;29;20043;-60
2023/10/05 01:06:56;;;;;;;1.00;0.50;;;13.40;99.90;;;;;;4948386;29;20058;-60
2023/10/05 01:14:46;;;;;;;0.82;0.52;;;13.30;99.90;;;;;;4929313;29;20044;-60
2023/10/05 01:17:13;;;;;;;2.78;0.73;;;13.30;99.90;;;;;;4928772;28;20079;-60
2023/10/05 01:19:53;;;;;;;3.95;0.68;;;13.20;99.90;;;;;;4930031;29;20102;-60
2023/10/05 01:22:24;;;;;;;3.10;0.50;;;13.20;99.90;;;;;;4948478;28;20042;-60
2023/10/05 01:24:51;;;;;;;3.25;0.50;;;13.20;99.90;;;;;;4937790;28;20500;-60
2023/10/05 01:27:18;;;;;;;3.60;0.70;;;13.20;99.90;;;;;;4928813;29;20059;-60
2023/10/05 01:29:45;;;;;;;1.60;0.50;;;13.20;99.90;;;;;;4928763;29;20412;-60
2023/10/05 01:32:14;;;;;;;6.13;0.80;;;13.20;99.90;;;;;;4929047;29;20450;-60
2023/10/05 01:34:51;;;;;;;0.70;0.40;;;13.20;99.90;;;;;;4911564;29;20044;-60
2023/10/05 01:37:26;;;;;;;3.85;0.60;;;13.20;99.90;;;;;;4928824;29;20557;-60
2023/10/05 01:39:52;;;;;;;1.58;0.47;;;13.30;99.90;;;;;;4943674;29;20082;-60
2023/10/05 01:42:19;;;;;;;3.33;1.08;;;13.30;99.90;;;;;;4947687;29;20066;-60
2023/10/05 01:44:49;;;;;;;2.40;0.50;;;13.30;99.90;;;;;;4947254;28;20051;-60
2023/10/05 01:47:26;;;;;;;3.95;0.50;;;13.40;99.90;;;;;;4947798;29;20047;-60
2023/10/05 01:49:56;;;;;;;2.95;0.55;;;13.40;99.90;;;;;;4947390;29;20079;-60
2023/10/05 01:52:22;;;;;;;1.40;0.50;;;13.50;99.90;;;;;;4947275;29;20062;-60
2023/10/05 01:54:48;;;;;;;2.10;1.13;;;13.50;99.90;;;;;;4948608;28;20053;-60
2023/10/05 01:57:16;;;;;;;3.22;0.68;;;13.50;99.90;;;;;;4947681;29;20586;-60
2023/10/05 01:59:43;;;;;;;2.85;0.77;;;13.60;99.90;;;;;;4946716;29;20050;-60
2023/10/05 02:02:15;;;;;;;7.22;1.02;;;13.60;99.90;;;;;;4948557;28;20058;-60
2023/10/05 02:04:45;;;;;;;1.55;0.50;;;13.70;99.90;;;;;;4946733;29;20054;-60
2023/10/05 02:07:15;;;;;;;;;;;13.70;99.90;;;;;;4928182;29;20078;-60
2023/10/05 02:09:46;;;;;;;4.15;0.80;;;13.80;99.90;;;;;;4929482;29;19973;-60
2023/10/05 02:12:12;;;;;;;1.38;0.40;;;13.80;99.90;;;;;;4927715;28;20102;-60
2023/10/05 02:14:46;;;;;;;4.72;0.70;;;13.90;99.90;;;;;;4929430;28;20487;-60
2023/10/05 02:17:24;;;;;;;0.68;0.40;;;13.90;99.90;;;;;;4912856;29;20043;-60
2023/10/05 02:20:08;;;;;;;5.93;0.70;;;14.00;99.90;;;;;;4928497;28;20063;-60
2023/10/05 02:22:47;;;;;;;4.57;0.77;;;14.00;99.90;;;;;;4930998;28;20043;-60
2023/10/05 02:25:33;;;;;;;3.15;0.57;;;14.10;99.90;;;;;;4940372;28;20105;-60
2023/10/05 02:28:00;;;;;;;1.88;0.93;;;14.10;99.90;;;;;;4947591;28;20430;-60
2023/10/05 02:30:27;;;;;;;3.03;1.08;;;14.20;99.90;;;;;;4947255;29;20047;-60
2023/10/05 02:32:58;;;;;;;1.85;0.75;;;14.20;99.90;;;;;;4947534;28;20484;-60
2023/10/05 02:35:30;;;;;;;7.38;1.00;;;14.20;99.90;;;;;;4940325;28;20121;-60
2023/10/05 02:38:05;;;;;;;3.55;0.57;;;14.20;99.90;;;;;;4966045;28;20042;-60
2023/10/05 02:40:46;;;;;;;2.70;0.73;;;14.20;99.90;;;;;;4966878;28;20422;-60
2023/10/05 02:43:17;;;;;;;1.23;0.47;;;14.30;99.90;;;;;;4966539;28;20435;-60
2023/10/05 02:45:47;;;;;;;1.70;0.40;;;14.40;99.90;;;;;;4965372;28;20111;-60
2023/10/05 02:48:17;;;;;;;5.68;0.90;;;14.30;99.90;;;;;;4932533;29;20039;-60
2023/10/05 02:50:46;;;;;;;6.47;0.80;;;14.30;99.90;;;;;;4949153;29;20043;-60
2023/10/05 02:53:13;;;;;;;4.00;0.50;;;14.30;99.90;;;;;;4950011;28;20415;-60
2023/10/05 02:55:40;;;;;;;2.53;0.77;;;14.30;99.90;;;;;;4948535;29;20047;-60
2023/10/05 02:58:06;;;;;;;1.30;0.40;;;14.30;99.90;;;;;;4948965;29;20526;-60
2023/10/05 03:00:37;;;;;;;5.75;0.60;;;14.20;99.90;;;;;;4948680;28;20083;-60
2023/10/05 03:03:05;;;;;;;6.90;1.42;;;14.20;99.90;;;;;;4932591;29;20105;-60
2023/10/05 03:05:42;;;;;;;1.90;0.45;;;14.20;99.90;;;;;;4949199;29;20047;-60
2023/10/05 03:08:22;;;;;;;3.50;1.05;;;14.10;99.90;;;;;;4948067;29;20113;-60
2023/10/05 03:10:59;;;;;;;5.22;1.00;;;14.10;99.90;;;;;;4950176;28;20058;-60
2023/10/05 03:13:45;;;;;;;2.38;0.70;;;14.20;99.90;;;;;;4948735;29;20491;-60
2023/10/05 03:16:17;;;;;;;0.85;0.47;;;14.10;99.90;;;;;;4948068;29;20047;-60
2023/10/05 03:18:55;;;;;;;5.63;0.60;;;14.10;99.90;;;;;;4947754;29;20109;-60
2023/10/05 03:21:31;;;;;;;2.95;0.70;;;14.20;99.90;;;;;;4949467;28;20045;-60
2023/10/05 03:24:02;;;;;;;2.05;0.40;;;14.20;99.90;;;;;;4940674;28;20051;-61
2023/10/05 03:26:29;;;;;;;3.97;0.77;;;14.20;99.90;;;;;;4929406;29;20677;-60
2023/10/05 03:29:00;;;;;;;3.05;0.70;;;14.20;99.90;;;;;;4928841;29;20136;-60
2023/10/05 03:31:37;;;;;;;5.85;0.80;;;14.10;99.90;;;;;;4937279;29;20054;-60
2023/10/05 03:34:07;;;;;;;2.60;1.00;;;14.10;99.90;;;;;;4948515;29;20040;-60
2023/10/05 03:36:35;;;;;;;4.30;1.00;;;14.10;99.90;;;;;;4948869;28;20097;-60
2023/10/05 03:39:06;;;;;;;2.08;0.70;;;14.00;99.90;;;;;;4932406;29;20050;-60
2023/10/05 03:41:32;;;;;;;4.60;0.88;;;14.00;99.90;;;;;;4948856;29;20051;-60
2023/10/05 03:44:02;;;;;;;1.80;0.43;;;14.00;99.90;;;;;;4907838;29;1213260;-60
2023/10/05 03:46:28;;;;;;;2.67;0.57;;;14.00;99.90;;;;;;4950294;29;20116;-60
2023/10/05 03:49:06;;;;;;;3.40;0.88;;;14.00;99.90;;;;;;4950164;29;20051;-60
2023/10/05 03:51:32;;;;;;;3.33;0.60;;;14.00;99.90;;;;;;4949987;29;20105;-60
2023/10/05 03:53:59;;;;;;;3.80;0.93;;;13.90;99.90;;;;;;4939111;29;20044;-60
2023/10/05 03:56:27;;;;;;;6.03;0.95;;;13.90;99.90;;;;;;4930774;29;20078;-60
2023/10/05 03:58:53;;;;;;;2.97;0.60;;;13.80;99.90;;;;;;4931796;29;20054;-60
2023/10/05 04:01:21;;;;;;;4.80;0.75;;;13.90;99.90;;;;;;4950095;29;20499;-60
2023/10/05 04:03:49;;;;;;;2.55;1.17;;;13.90;99.90;;;;;;4951022;28;20543;-60
2023/10/05 04:06:26;;;;;;;3.80;0.63;;;14.00;99.90;;;;;;4950276;29;20097;-60
2023/10/05 04:09:00;;;;;;;1.98;1.15;;;14.00;99.90;;;;;;4950215;29;20086;-60
2023/10/05 04:11:27;;;;;;;3.63;0.88;;;13.90;99.90;;;;;;4950748;28;20043;-61
2023/10/05 04:13:55;;;;;;;1.30;0.52;;;13.90;99.90;;;;;;4951364;28;20118;-60
2023/10/05 04:16:28;;;;;;;3.08;1.45;;;14.00;99.90;;;;;;4934197;29;20043;-61
2023/10/05 04:18:55;;;;;;;4.43;1.40;;;14.00;99.90;;;;;;4949433;29;20070;-60
2023/10/05 04:21:24;;;;;;;2.45;0.60;;;14.00;99.90;;;;;;4951209;28;20054;-60
2023/10/05 04:23:50;;;;;;;3.40;0.47;;;14.00;99.90;;;;;;4943934;28;20105;-60
2023/10/05 04:26:20;;;;;;;9.77;0.93;;;14.00;99.90;;;;;;4930025;29;20488;-60
2023/10/05 04:28:52;;;;;;;3.45;0.50;;;14.00;99.90;;;;;;4962936;28;20125;-60
2023/10/05 04:31:22;;;;;;;6.00;0.80;;;14.10;99.90;;;;;;4970237;28;20092;-60
2023/10/05 04:33:54;;;;;;;4.68;0.68;;;14.10;99.90;;;;;;4968163;28;20050;-60
2023/10/05 04:36:22;;;;;;;4.78;0.55;;;14.20;99.90;;;;;;4968749;28;20047;-60
2023/10/05 04:38:50;;;;;;;2.97;0.77;;;14.20;99.90;;;;;;4963776;28;20062;-60
2023/10/05 04:41:19;;;;;;;2.00;0.70;;;14.20;99.90;;;;;;4949001;29;20181;-60
2023/10/05 04:43:48;;;;;;;0.88;0.50;;;14.20;99.90;;;;;;4932725;29;20125;-60
2023/10/05 04:46:17;;;;;;;3.15;0.90;;;14.20;99.90;;;;;;4948589;29;20054;-60
2023/10/05 04:48:55;;;;;;;;;;;14.20;99.90;;;;;;4949765;29;20043;-60
2023/10/05 04:51:23;;;;;;;2.38;0.73;;;14.20;99.90;;;;;;4950894;28;19922;-60
2023/10/05 04:53:53;;;;;;;2.67;0.80;;;14.20;99.90;;;;;;4945414;29;20038;-60
2023/10/05 04:57:07;;;;;;;3.30;0.80;;;14.20;99.90;;;;;;4949535;29;20047;-60
2023/10/05 05:07:00;;;;;;;7.10;1.17;;;14.10;99.90;;;;;;4949810;28;20503;-60
2023/10/05 05:09:30;;;;;;;4.43;0.70;;;14.10;99.90;;;;;;4949299;28;20048;-60
2023/10/05 05:12:05;;;;;;;4.05;0.75;;;14.10;99.90;;;;;;4949065;29;20036;-60
2023/10/05 05:14:35;;;;;;;1.10;0.40;;;14.10;99.90;;;;;;4948423;29;20589;-60
2023/10/05 05:17:07;;;;;;;3.92;0.85;;;14.10;99.90;;;;;;4933300;29;20043;-60
2023/10/05 05:19:36;;;;;;;4.30;0.77;;;14.10;99.90;;;;;;4950140;28;20126;-60
2023/10/05 05:22:05;;;;;;;2.95;0.75;;;14.10;99.90;;;;;;4946223;28;20059;-60
2023/10/05 05:24:34;;;;;;;3.53;0.83;;;14.10;99.90;;;;;;4945417;28;20411;-60
2023/10/05 05:27:01;;;;;;;;;;;14.10;99.90;;;;;;4949143;29;20138;-60
2023/10/05 05:29:32;;;;;;;2.03;0.60;;;14.10;99.90;;;;;;4947820;29;19923;-60
2023/10/05 05:32:10;;;;;;;1.35;0.60;;;14.10;99.90;;;;;;4948709;29;20109;-60
2023/10/05 05:34:43;;;;;;;4.50;1.13;;;14.10;99.90;;;;;;4949999;28;20039;-60
2023/10/05 05:37:30;;;;;;;3.10;0.82;;;14.10;99.90;;;;;;4948137;29;20043;-60
2023/10/05 05:39:57;;;;;;;3.50;1.17;;;14.10;99.90;;;;;;4948323;29;20066;-60
2023/10/05 05:42:25;;;;;;;3.25;1.02;;;14.10;99.90;;;;;;4947843;29;20082;-60
2023/10/05 05:44:55;;;;;;;1.35;0.80;;;14.10;99.90;;;;;;4947827;29;20050;-60
2023/10/05 05:47:20;;;;;;;;;;;14.10;99.90;;;;;;4949985;28;20031;-60
2023/10/05 05:49:46;;;;;;;1.48;0.45;;;14.10;99.90;;;;;;4947758;29;20409;-60
2023/10/05 05:52:14;;;;;;;3.15;1.45;;;14.20;99.90;;;;;;4947165;28;20039;-60
2023/10/05 05:54:47;;;;;;;7.43;1.75;;;14.20;99.90;;;;;;4949281;28;20483;-60
2023/10/05 05:57:19;;;;;;;2.40;0.68;;;14.20;99.90;;;;;;4947602;29;20051;-60
2023/10/05 05:59:45;;;;;;;6.32;0.75;;;14.20;99.90;;;;;;4948265;29;20047;-60
2023/10/05 06:02:11;;;;;;;5.15;0.88;;;14.20;99.90;;;;;;4948225;29;20137;-60
2023/10/05 06:04:39;;;;;;;5.78;0.88;;;14.30;99.90;;;;;;4947714;29;20254;-60
2023/10/05 06:07:13;;;;;;;4.07;0.80;;;14.30;99.90;;;;;;4949151;28;20039;-60
2023/10/05 06:09:43;;;;;;;2.80;0.57;;;14.30;99.90;;;;;;4947732;29;20112;-60
2023/10/05 06:12:13;;;;;;;2.88;0.95;;;14.30;99.90;;;;;;4948886;28;20063;-60
2023/10/05 06:14:40;;;;;;;5.28;0.80;;;14.30;99.90;;;;;;4949274;28;20123;-60
2023/10/05 06:17:07;;;;;;;8.82;0.98;;;14.40;99.90;;;;;;4947649;29;20112;-60
2023/10/05 06:19:33;;;;;;;3.63;0.63;;;14.40;99.90;;;;;;4948927;28;20138;-60
2023/10/05 06:22:01;;;;;;;6.00;0.80;;;14.40;99.90;;;;;;4946067;28;20522;-60
2023/10/05 06:24:27;;;;;;;5.40;0.90;;;14.50;99.90;;;;;;4937131;29;20108;-60
2023/10/05 06:26:53;;;;;;;3.10;0.90;;;14.50;99.90;;;;;;4947491;28;20051;-60
2023/10/05 06:29:19;;;;;;;1.55;0.65;;;14.50;99.90;;;;;;4928640;28;20134;-60
2023/10/05 06:31:44;;;;;;;2.88;1.08;;;14.50;99.90;;;;;;4936309;28;20039;-60
2023/10/05 06:34:11;;;;;;;5.68;1.65;;;14.50;99.90;;;;;;4947986;28;20457;-60
2023/10/05 06:36:37;;;;;;;2.75;0.55;;;14.50;99.90;;;;;;4947624;29;20086;-60
2023/10/05 06:39:14;;;;;;;2.58;0.52;;;14.50;99.90;;;;;;4947400;28;20208;-60
2023/10/05 06:41:43;;;;;;;4.63;0.90;;;14.60;99.90;;;;;;4947849;29;20058;-60
2023/10/05 06:44:10;;;;;;;6.45;0.82;;;14.60;99.90;;;;;;4947380;29;20066;-60
2023/10/05 06:46:40;;;;;;;2.60;1.25;;;14.60;99.90;;;;;;4947572;28;20562;-60
2023/10/05 06:49:06;;;;;;;2.72;0.50;;;14.70;99.90;;;;;;4946651;28;20054;-61
2023/10/05 06:51:32;;;;;;;2.53;0.80;;;14.70;99.90;;;;;;4947914;29;20051;-60
2023/10/05 06:53:58;;;;;;;6.47;1.23;;;14.70;99.90;;;;;;4937149;28;20044;-60
2023/10/05 06:56:25;;;;;;;3.00;1.65;;;14.80;99.90;;;;;;4930384;29;20043;-60
2023/10/05 06:58:51;;;;;;;4.35;0.68;;;14.80;99.90;;;;;;4947003;29;20047;-61
2023/10/05 07:01:20;;;;;;;8.55;1.17;;;14.90;99.90;;;;;;4948789;29;20118;-61
2023/10/05 07:03:56;;;;;;;5.47;0.55;;;14.90;99.90;;;;;;4946912;29;20390;-61
2023/10/05 07:06:29;;;;;;;4.07;1.05;;;14.90;99.90;;;;;;4948018;28;20050;-61
2023/10/05 07:08:56;;;;;;;4.05;0.95;;;15.00;99.90;;;;;;4947303;29;20121;-61
2023/10/05 07:11:23;;;;;;;9.02;1.27;;;15.00;99.90;;;;;;4947159;29;20503;-61
2023/10/05 07:13:49;;;;;;;3.50;1.20;;;15.00;99.90;;;;;;4946600;29;20496;-61
2023/10/05 07:16:15;;;;;;;5.07;1.10;;;15.10;99.90;;;;;;4948375;28;20357;-61
2023/10/05 07:18:42;;;;;;;2.75;1.77;;;15.10;99.90;;;;;;4947249;29;20576;-61
2023/10/05 07:21:08;;;;;;;5.63;0.90;;;15.20;99.90;;;;;;4930625;29;20061;-61
2023/10/05 07:23:39;;;;;;;3.40;0.70;;;15.20;99.90;;;;;;4937289;28;20048;-61
2023/10/05 07:26:06;;;;;;;7.97;1.85;;;15.30;99.90;;;;;;4945500;29;20071;-61
2023/10/05 07:28:47;;;;;;;6.88;2.50;;;15.30;99.90;;;;;;4947689;28;20047;-60
2023/10/05 07:31:13;;;;;;;5.10;1.55;;;15.30;99.90;;;;;;4947395;28;20042;-61
2023/10/05 07:33:39;;;;;;;3.53;0.52;;;15.40;99.90;;;;;;4950007;28;20130;-61
2023/10/05 07:36:05;;;;;;;4.57;1.20;;;15.40;99.90;;;;;;4949728;29;20047;-61
2023/10/05 07:38:32;;;;;;;2.20;0.95;;;15.40;99.90;;;;;;4950198;29;20081;-61
2023/10/05 07:40:59;;;;;;;3.10;1.08;;;15.50;99.90;;;;;;4949748;29;20082;-61
2023/10/05 07:43:27;;;;;;;4.57;0.88;;;15.60;99.90;;;;;;4950931;28;20047;-61
2023/10/05 07:45:54;;;;;;;4.82;1.23;;;15.60;99.90;;;;;;4949957;29;20047;-61
2023/10/05 07:48:20;;;;;;;4.07;0.70;;;15.60;99.90;;;;;;4949787;29;20047;-61
2023/10/05 07:50:49;;;;;;;3.90;0.95;;;15.60;99.90;;;;;;4949974;29;20218;-61
2023/10/05 07:53:15;;;;;;;2.53;1.25;;;15.60;99.90;;;;;;4928360;29;20040;-60
2023/10/05 07:55:41;;;;;;;6.70;1.45;;;15.60;99.90;;;;;;4931590;29;20054;-61
2023/10/05 07:58:07;;;;;;;5.55;1.13;;;15.60;99.90;;;;;;4931106;29;20083;-61
2023/10/05 08:00:33;;;;;;;1.95;0.70;;;15.60;99.90;;;;;;4915451;29;20133;-61
2023/10/05 08:02:59;;;;;;;2.38;0.80;;;15.60;99.90;;;;;;4932248;29;20415;-61
2023/10/05 08:05:25;;;;;;;2.88;0.90;;;15.60;99.90;;;;;;4950144;29;20492;-61
2023/10/05 08:07:51;;;;;;;4.47;1.30;;;15.60;99.90;;;;;;4951196;28;20035;-61
2023/10/05 08:10:19;;;;;;;5.10;1.35;;;15.60;99.90;;;;;;4949269;29;20399;-61
2023/10/05 08:12:48;;;;;;;6.15;1.02;;;15.70;99.90;;;;;;4957946;28;20491;-60
2023/10/05 08:15:18;;;;;;;12.00;1.33;;;15.70;99.90;;;;;;4969103;28;20047;-61
2023/10/05 08:17:48;;;;;;;4.88;0.93;;;15.70;99.90;;;;;;4969897;28;20042;-61
2023/10/05 08:20:15;;;;;;;2.50;1.42;;;15.80;99.90;;;;;;4962139;28;20051;-61
2023/10/05 08:22:41;;;;;;;2.72;0.80;;;15.80;99.90;;;;;;4944851;28;20058;-61
2023/10/05 08:25:11;;;;;;;6.05;0.80;;;15.80;99.90;;;;;;4935343;29;20051;-61
2023/10/05 08:27:42;;;;;;;2.85;0.75;;;15.90;99.90;;;;;;4931918;29;20058;-61
2023/10/05 08:30:10;;;;;;;2.83;1.00;;;15.80;99.90;;;;;;4929918;29;20083;-61
2023/10/05 08:32:37;;;;;;;5.63;1.20;;;15.80;99.90;;;;;;4947826;28;20047;-61
2023/10/05 08:35:12;;;;;;;2.95;0.82;;;15.80;99.90;;;;;;4949539;29;20122;-61
2023/10/05 08:37:42;;;;;;;6.35;1.30;;;15.90;99.90;;;;;;4950265;28;20461;-60
2023/10/05 08:43:16;;;;;;;4.55;1.10;;;15.90;99.90;;;;;;4950278;28;20067;-61
2023/10/05 08:45:46;;;;;;;4.10;0.88;;;15.90;99.90;;;;;;4950256;29;20051;-61
2023/10/05 08:48:22;;;;;;;4.35;0.70;;;15.90;99.90;;;;;;4950984;29;20134;-61
2023/10/05 08:50:53;;;;;;;3.35;1.48;;;16.00;99.90;;;;;;4950674;29;20142;-61
2023/10/05 08:53:21;;;;;;;4.35;1.13;;;16.10;99.90;;;;;;4934323;29;20114;-61
2023/10/05 08:55:52;;;;;;;3.57;0.97;;;16.20;99.90;;;;;;4934652;29;20098;-60
2023/10/05 08:58:20;;;;;;;6.53;0.50;;;16.40;99.90;;;;;;4934112;29;20069;-61
2023/10/05 09:00:46;;;;;;;5.82;1.23;;;16.40;99.90;;;;;;4950845;29;20035;-61
2023/10/05 09:03:35;;;;;;;5.18;1.23;;;16.60;99.90;;;;;;4934774;29;20079;-61
2023/10/05 09:06:24;;;;;;;5.55;1.38;;;16.60;99.90;;;;;;4934212;29;20792;-61
2023/10/05 09:08:54;;;;;;;4.00;1.10;;;16.80;99.90;;;;;;4934305;29;20062;-61
2023/10/05 09:11:27;;;;;;;4.43;1.17;;;17.10;99.90;;;;;;4950713;29;20055;-61
2023/10/05 09:13:53;;;;;;;4.40;1.00;;;17.20;99.90;;;;;;4934176;29;20051;-62
2023/10/05 09:16:30;;;;;;;6.13;1.13;;;17.20;99.90;;;;;;4932863;29;20150;-61
2023/10/05 09:18:57;;;;;;;5.50;1.13;;;17.20;99.90;;;;;;5012607;28;20048;-61
2023/10/05 09:21:42;;;;;;;5.72;0.93;;;17.20;99.90;;;;;;4966710;28;20043;-61
2023/10/05 09:24:21;;;;;;;4.30;0.70;;;17.20;99.90;;;;;;4946499;28;20054;-61
2023/10/05 09:27:13;;;;;;;1.52;0.70;;;17.30;99.90;;;;;;4930409;29;20044;-61
2023/10/05 09:29:43;;;;;;;1.95;1.00;;;17.40;99.90;;;;;;4930904;29;20044;-61
2023/10/05 09:32:30;;;;;;;3.42;1.30;;;17.70;99.90;;;;;;4914127;29;20040;-61
2023/10/05 09:34:57;;;;;;;3.80;0.93;;;17.90;99.90;;;;;;4931592;29;20114;-61
2023/10/05 09:37:27;;;;;;;2.67;1.00;;;18.00;99.90;;;;;;4932767;29;20054;-61
2023/10/05 09:39:59;;;;;;;2.65;0.90;;;18.10;99.90;;;;;;4948256;29;20070;-61
2023/10/05 09:42:25;;;;;;;2.15;0.73;;;18.00;99.90;;;;;;4949617;28;20055;-61
2023/10/05 09:44:53;;;;;;;4.72;1.00;;;18.00;99.90;;;;;;4948828;29;20039;-61
2023/10/05 09:47:26;;;;;;;5.15;1.58;;;18.00;99.90;;;;;;4947921;29;20062;-61
2023/10/05 09:49:54;;;;;;;4.82;1.45;;;18.10;99.90;;;;;;4948439;29;20051;-61
2023/10/05 09:52:21;;;;;;;3.05;0.55;;;18.10;99.90;;;;;;4933075;29;20062;-61
2023/10/05 09:54:47;;;;;;;1.35;0.52;;;18.20;99.90;;;;;;4929881;29;20047;-61
2023/10/05 09:57:17;;;;;;;3.05;0.85;;;18.30;99.90;;;;;;4928730;29;20047;-62
2023/10/05 09:59:57;;;;;;;3.92;0.93;;;18.40;99.90;;;;;;4929143;29;20044;-61
2023/10/05 10:02:29;;;;;;;3.20;1.23;;;18.50;99.90;;;;;;4928412;29;20058;-61
2023/10/05 10:04:57;;;;;;;3.80;1.55;;;18.50;99.90;;;;;;4941130;28;20402;-61
2023/10/05 10:07:26;;;;;;;2.65;0.90;;;18.50;99.90;;;;;;4967337;28;20085;-61
2023/10/05 10:09:55;;;;;;;3.55;0.60;;;18.60;99.90;;;;;;4968086;28;20043;-61
2023/10/05 10:12:33;;;;;;;5.50;1.05;;;18.70;99.90;;;;;;4963199;28;20071;-61
2023/10/05 10:14:59;;;;;;;1.73;0.93;;;18.50;99.90;;;;;;4948701;28;20045;-61
2023/10/05 10:17:33;;;;;;;3.88;0.90;;;18.30;99.90;;;;;;4947210;29;20086;-62
2023/10/05 10:20:34;;;;;;;1.92;0.93;;;18.00;99.90;;;;;;4948058;28;20050;-61
2023/10/05 10:23:08;;;;;;;7.32;1.30;;;17.90;99.90;;;;;;4941508;28;20105;-61
2023/10/05 10:25:41;;;;;;;3.97;1.20;;;18.00;99.90;;;;;;4942445;29;20082;-61
2023/10/05 10:31:42;;;;;;;2.30;0.57;;;18.40;99.90;;;;;;4980335;28;20055;-61
2023/10/05 10:34:49;;;;;;;4.47;1.20;;;18.40;99.90;;;;;;4948577;28;20104;-61
2023/10/05 10:37:50;;;;;;;3.55;0.88;;;18.10;99.90;;;;;;4948408;28;20031;-61
2023/10/05 10:45:40;;;;;;;5.63;0.70;;;17.30;99.90;;;;;;4935085;28;20763;-61
2023/10/05 10:48:32;;;;;;;3.58;0.90;;;17.10;99.90;;;;;;4927179;28;20142;-61
2023/10/05 10:51:00;;;;;;;4.80;0.63;;;17.20;99.90;;;;;;4935586;28;20051;-61
2023/10/05 10:53:31;;;;;;;4.28;1.10;;;17.40;99.90;;;;;;4935246;28;20055;-61
2023/10/05 10:56:03;;;;;;;6.90;1.27;;;17.80;99.90;;;;;;4935601;28;20122;-61
2023/10/05 10:58:32;;;;;;;4.32;1.13;;;18.10;99.90;;;;;;4933266;28;20499;-61
2023/10/05 11:01:03;;;;;;;5.35;0.88;;;18.70;99.90;;;;;;4933827;28;20055;-61
2023/10/05 11:03:32;;;;;;;1.58;0.80;;;19.10;99.90;;;;;;4933442;28;20679;-61
2023/10/05 11:06:00;;;;;;;5.85;0.90;;;19.30;99.90;;;;;;4933757;28;20055;-62
2023/10/05 11:08:45;;;;;;;1.27;0.40;;;19.50;99.90;;;;;;4951151;28;20036;-62
2023/10/05 11:11:16;;;;;;;2.22;0.95;;;19.80;99.90;;;;;;4937446;28;20043;-62
2023/10/05 11:13:43;;;;;;;1.92;1.02;;;19.70;99.90;;;;;;4937574;28;20118;-62
2023/10/05 11:16:19;;;;;;;3.20;1.05;;;19.70;99.90;;;;;;4938039;28;20061;-62
2023/10/05 11:19:12;;;;;;;2.55;0.93;;;19.90;99.90;;;;;;4937123;28;20124;-62
2023/10/05 11:21:47;;;;;;;2.38;0.75;;;20.20;99.90;;;;;;4938168;28;20047;-61
2023/10/05 11:24:18;;;;;;;3.40;0.70;;;20.50;99.90;;;;;;4938428;28;20465;-61
2023/10/05 11:29:29;;;;;;;2.72;1.00;;;20.40;99.90;;;;;;4939520;28;20039;-61
2023/10/05 11:32:12;;;;;;;4.80;0.70;;;20.10;99.90;;;;;;4937730;28;20051;-62
2023/10/05 11:34:44;;;;;;;2.53;0.68;;;19.70;99.90;;;;;;4938451;28;20062;-62
2023/10/05 11:37:18;;;;;;;3.85;0.90;;;19.80;99.90;;;;;;4938676;28;20141;-61
2023/10/05 11:39:49;;;;;;;5.05;1.30;;;19.80;99.90;;;;;;4937662;28;20043;-61
2023/10/05 11:42:24;;;;;;;2.70;1.23;;;19.70;99.90;;;;;;4922097;28;20051;-62
2023/10/05 11:45:00;;;;;;;3.97;0.90;;;19.70;99.90;;;;;;4938190;28;20567;-62
2023/10/05 11:47:35;;;;;;;1.88;0.60;;;19.70;99.90;;;;;;4936988;28;20055;-61
2023/10/05 11:50:08;;;;;;;4.60;1.15;;;19.60;99.90;;;;;;4937405;28;20059;-61
2023/10/05 11:52:40;;;;;;;1.40;0.63;;;19.50;99.90;;;;;;4938686;28;20039;-62
2023/10/05 11:55:11;;;;;;;5.95;0.93;;;19.40;99.90;;;;;;4938509;28;20047;-62
2023/10/05 11:57:38;;;;;;;1.38;0.50;;;19.30;99.90;;;;;;4938603;28;20507;-61
2023/10/05 12:00:06;;;;;;;4.05;0.70;;;19.10;99.90;;;;;;4937083;28;20047;-61
2023/10/05 12:02:33;;;;;;;1.55;0.35;;;19.00;99.90;;;;;;4952956;28;20059;-61
2023/10/05 12:04:59;;;;;;;1.65;0.73;;;18.80;99.90;;;;;;4938043;28;20393;-61
2023/10/05 12:07:25;;;;;;;6.82;1.33;;;18.70;99.90;;;;;;4938392;28;20531;-61
2023/10/05 12:09:51;;;;;;;3.63;0.77;;;18.70;99.90;;;;;;4937513;28;20127;-61
2023/10/05 12:12:18;;;;;;;1.55;0.60;;;18.60;99.90;;;;;;4939605;28;20563;-61
2023/10/05 12:14:44;;;;;;;2.35;1.05;;;18.60;99.90;;;;;;4937369;28;20063;-61
2023/10/05 12:17:10;;;;;;;3.30;0.80;;;18.60;99.90;;;;;;4938716;28;20047;-62
2023/10/05 12:19:37;;;;;;;2.70;0.85;;;18.70;99.90;;;;;;4937555;28;20130;-61
2023/10/05 12:22:13;;;;;;;4.28;0.75;;;18.80;99.90;;;;;;4936330;28;20063;-61
2023/10/05 12:24:39;;;;;;;3.35;0.82;;;18.90;99.90;;;;;;4937192;28;20040;-61
2023/10/05 12:27:20;;;;;;;3.60;0.82;;;18.90;99.90;;;;;;4921635;28;20051;-61
2023/10/05 12:29:46;;;;;;;3.92;0.80;;;19.00;99.90;;;;;;4922912;28;20043;-62
2023/10/05 12:32:13;;;;;;;1.80;0.60;;;19.10;99.90;;;;;;4940365;28;20040;-61
2023/10/05 12:34:48;;;;;;;3.50;0.82;;;19.30;99.90;;;;;;4938394;28;20086;-61
2023/10/05 12:37:17;;;;;;;2.08;1.15;;;19.30;99.90;;;;;;4936926;28;20052;-61
2023/10/05 12:39:44;;;;;;;;;;;19.30;99.90;;;;;;4937470;28;20043;-61
2023/10/05 12:42:10;;;;;;;2.45;0.50;;;19.40;99.90;;;;;;4938173;28;20318;-61
2023/10/05 12:44:36;;;;;;;2.25;0.80;;;19.40;99.90;;;;;;4937089;28;20043;-62
2023/10/05 12:47:07;;;;;;;6.97;1.05;;;19.40;99.90;;;;;;4937540;28;20769;-62
2023/10/05 12:49:33;;;;;;;11.10;1.15;;;19.30;99.90;;;;;;4952119;28;20075;-61
2023/10/05 12:51:59;;;;;;;4.10;0.98;;;19.30;99.90;;;;;;4937130;28;20050;-61
2023/10/05 12:54:34;;;;;;;5.35;0.93;;;19.10;99.90;;;;;;4938877;28;20040;-61
2023/10/05 12:57:09;;;;;;;3.35;0.70;;;18.90;99.90;;;;;;4952526;28;20092;-61
2023/10/05 12:59:35;;;;;;;2.33;0.75;;;18.90;99.90;;;;;;4942187;28;20484;-60
2023/10/05 13:02:13;;;;;;;5.03;0.70;;;18.80;99.90;;;;;;4942617;28;20106;-61
2023/10/05 13:04:39;;;;;;;4.05;0.82;;;18.70;99.90;;;;;;4952515;28;20582;-61
2023/10/05 13:07:04;;;;;;;2.90;0.82;;;18.60;99.90;;;;;;4935749;28;20391;-61
2023/10/05 13:09:32;;;;;;;4.45;1.10;;;18.60;99.90;;;;;;4935693;28;20050;-61
2023/10/05 13:11:58;;;;;;;4.20;0.93;;;18.70;99.90;;;;;;4936238;28;20058;-61
2023/10/05 13:14:24;;;;;;;2.85;0.52;;;18.80;99.90;;;;;;4937818;28;20042;-61
2023/10/05 13:16:54;;;;;;;6.47;0.50;;;18.70;99.90;;;;;;4935918;28;20039;-61
2023/10/05 13:19:20;;;;;;;3.00;0.85;;;18.80;99.90;;;;;;4937960;28;20067;-61
2023/10/05 13:21:46;;;;;;;4.28;0.57;;;18.90;99.90;;;;;;4936726;28;20128;-61
2023/10/05 13:24:12;;;;;;;3.30;0.95;;;18.90;99.90;;;;;;4936886;28;20051;-61
2023/10/05 13:26:45;;;;;;;4.22;1.13;;;18.90;99.90;;;;;;4936507;28;20522;-61
2023/10/05 13:29:17;;;;;;;3.90;0.98;;;18.90;99.90;;;;;;4935304;28;20052;-61
2023/10/05 13:31:46;;;;;;;3.50;1.23;;;18.90;99.90;;;;;;4935547;28;20039;-61
2023/10/05 13:34:27;;;;;;;3.63;0.98;;;18.90;99.90;;;;;;4951451;28;20569;-61
2023/10/05 13:36:57;;;;;;;2.20;0.55;;;18.80;99.90;;;;;;4936160;28;20101;-62
2023/10/05 13:39:26;;;;;;;2.33;0.70;;;18.80;99.90;;;;;;4935248;28;20058;-62